sensor_id;sensor_type;location;lat;lon;timestamp;temperature;humidity
13332;DHT22;6735;51.456;12.626;2023-05-07T00:01:07;10.10;83.90
13332;DHT22;6735;51.456;12.626;2023-05-07T00:03:32;10.10;84.00
13332;DHT22;6735;51.456;12.626;2023-05-07T00:05:58;10.20;84.00
13332;DHT22;6735;51.456;12.626;2023-05-07T00:08:24;10.20;83.70
13332;DHT22;6735;51.456;12.626;2023-05-07T00:10:49;10.20;83.80
13332;DHT22;6735;51.456;12.626;2023-05-07T00:13:15;10.10;83.80
13332;DHT22;6735;51.456;12.626;2023-05-07T00:15:40;10.20;83.80
13332;DHT22;6735;51.456;12.626;2023-05-07T00:18:06;10.20;83.50
13332;DHT22;6735;51.456;12.626;2023-05-07T00:20:31;10.10;83.50
13332;DHT22;6735;51.456;12.626;2023-05-07T00:22:57;10.10;83.60
13332;DHT22;6735;51.456;12.626;2023-05-07T00:25:22;10.00;83.50
13332;DHT22;6735;51.456;12.626;2023-05-07T00:27:48;9.90;83.60
13332;DHT22;6735;51.456;12.626;2023-05-07T00:30:13;9.90;83.90
13332;DHT22;6735;51.456;12.626;2023-05-07T00:32:39;9.90;83.80
13332;DHT22;6735;51.456;12.626;2023-05-07T00:35:06;10.00;83.70
13332;DHT22;6735;51.456;12.626;2023-05-07T00:37:31;10.00;83.70
13332;DHT22;6735;51.456;12.626;2023-05-07T00:39:57;10.00;83.70
13332;DHT22;6735;51.456;12.626;2023-05-07T00:42:22;10.10;83.70
13332;DHT22;6735;51.456;12.626;2023-05-07T00:44:49;10.10;83.60
13332;DHT22;6735;51.456;12.626;2023-05-07T00:47:15;10.10;83.60
13332;DHT22;6735;51.456;12.626;2023-05-07T00:49:44;10.10;83.40
13332;DHT22;6735;51.456;12.626;2023-05-07T00:52:15;10.00;83.40
13332;DHT22;6735;51.456;12.626;2023-05-07T00:54:42;10.10;83.30
13332;DHT22;6735;51.456;12.626;2023-05-07T00:57:09;10.00;83.60
13332;DHT22;6735;51.456;12.626;2023-05-07T00:59:35;10.10;83.60
13332;DHT22;6735;51.456;12.626;2023-05-07T01:02:00;10.00;83.40
13332;DHT22;6735;51.456;12.626;2023-05-07T01:04:26;9.90;83.90
13332;DHT22;6735;51.456;12.626;2023-05-07T01:06:53;9.90;84.00
13332;DHT22;6735;51.456;12.626;2023-05-07T01:09:21;9.90;83.90
13332;DHT22;6735;51.456;12.626;2023-05-07T01:11:47;9.80;84.10
13332;DHT22;6735;51.456;12.626;2023-05-07T01:14:14;9.90;84.20
13332;DHT22;6735;51.456;12.626;2023-05-07T01:16:40;9.80;84.20
13332;DHT22;6735;51.456;12.626;2023-05-07T01:19:08;9.90;84.10
13332;DHT22;6735;51.456;12.626;2023-05-07T01:21:33;9.90;83.80
13332;DHT22;6735;51.456;12.626;2023-05-07T01:24:02;9.90;83.70
13332;DHT22;6735;51.456;12.626;2023-05-07T01:26:28;9.90;83.60
13332;DHT22;6735;51.456;12.626;2023-05-07T01:28:53;9.90;83.60
13332;DHT22;6735;51.456;12.626;2023-05-07T01:31:19;10.00;83.50
13332;DHT22;6735;51.456;12.626;2023-05-07T01:33:46;9.90;83.40
13332;DHT22;6735;51.456;12.626;2023-05-07T01:36:13;9.90;83.60
13332;DHT22;6735;51.456;12.626;2023-05-07T01:38:39;9.90;83.60
13332;DHT22;6735;51.456;12.626;2023-05-07T01:41:06;9.90;83.80
13332;DHT22;6735;51.456;12.626;2023-05-07T01:43:32;9.90;83.60
13332;DHT22;6735;51.456;12.626;2023-05-07T01:45:58;9.90;83.60
13332;DHT22;6735;51.456;12.626;2023-05-07T01:48:25;9.90;83.60
13332;DHT22;6735;51.456;12.626;2023-05-07T01:50:51;9.90;83.70
13332;DHT22;6735;51.456;12.626;2023-05-07T01:53:17;9.90;83.60
13332;DHT22;6735;51.456;12.626;2023-05-07T01:55:42;9.80;83.80
13332;DHT22;6735;51.456;12.626;2023-05-07T01:58:08;9.80;84.20
13332;DHT22;6735;51.456;12.626;2023-05-07T02:00:34;9.80;84.10
13332;DHT22;6735;51.456;12.626;2023-05-07T02:02:59;9.90;84.00
13332;DHT22;6735;51.456;12.626;2023-05-07T02:05:25;10.00;83.90
13332;DHT22;6735;51.456;12.626;2023-05-07T02:07:50;9.90;83.80
13332;DHT22;6735;51.456;12.626;2023-05-07T02:10:15;9.90;83.70
13332;DHT22;6735;51.456;12.626;2023-05-07T02:12:41;9.90;83.90
13332;DHT22;6735;51.456;12.626;2023-05-07T02:15:08;9.90;83.90
13332;DHT22;6735;51.456;12.626;2023-05-07T02:17:33;9.90;83.80
13332;DHT22;6735;51.456;12.626;2023-05-07T02:19:59;9.80;83.80
13332;DHT22;6735;51.456;12.626;2023-05-07T02:22:25;9.80;84.20
13332;DHT22;6735;51.456;12.626;2023-05-07T02:24:50;9.80;84.40
13332;DHT22;6735;51.456;12.626;2023-05-07T02:27:16;9.80;84.20
13332;DHT22;6735;51.456;12.626;2023-05-07T02:29:42;9.80;84.20
13332;DHT22;6735;51.456;12.626;2023-05-07T02:32:07;9.70;84.30
13332;DHT22;6735;51.456;12.626;2023-05-07T02:34:33;9.70;84.50
13332;DHT22;6735;51.456;12.626;2023-05-07T02:36:58;9.70;84.50
13332;DHT22;6735;51.456;12.626;2023-05-07T02:39:23;9.80;84.40
13332;DHT22;6735;51.456;12.626;2023-05-07T02:41:49;9.70;84.50
13332;DHT22;6735;51.456;12.626;2023-05-07T02:44:14;9.70;84.70
13332;DHT22;6735;51.456;12.626;2023-05-07T02:46:40;9.70;84.70
13332;DHT22;6735;51.456;12.626;2023-05-07T02:49:05;9.70;84.90
13332;DHT22;6735;51.456;12.626;2023-05-07T02:51:31;9.70;84.80
13332;DHT22;6735;51.456;12.626;2023-05-07T02:53:56;9.80;84.70
13332;DHT22;6735;51.456;12.626;2023-05-07T02:56:22;9.70;84.80
13332;DHT22;6735;51.456;12.626;2023-05-07T02:58:47;9.70;84.60
13332;DHT22;6735;51.456;12.626;2023-05-07T03:01:13;9.80;84.60
13332;DHT22;6735;51.456;12.626;2023-05-07T03:03:39;9.80;84.50
13332;DHT22;6735;51.456;12.626;2023-05-07T03:06:05;9.80;84.50
13332;DHT22;6735;51.456;12.626;2023-05-07T03:08:32;9.70;84.50
13332;DHT22;6735;51.456;12.626;2023-05-07T03:10:57;9.80;84.60
13332;DHT22;6735;51.456;12.626;2023-05-07T03:13:23;9.80;84.50
13332;DHT22;6735;51.456;12.626;2023-05-07T03:15:48;9.90;84.40
13332;DHT22;6735;51.456;12.626;2023-05-07T03:18:14;9.80;84.30
13332;DHT22;6735;51.456;12.626;2023-05-07T03:20:39;9.80;84.50
13332;DHT22;6735;51.456;12.626;2023-05-07T03:23:05;9.80;84.60
13332;DHT22;6735;51.456;12.626;2023-05-07T03:25:31;9.70;84.50
13332;DHT22;6735;51.456;12.626;2023-05-07T03:27:57;9.70;84.80
13332;DHT22;6735;51.456;12.626;2023-05-07T03:30:22;9.70;84.80
13332;DHT22;6735;51.456;12.626;2023-05-07T03:32:48;9.70;84.60
13332;DHT22;6735;51.456;12.626;2023-05-07T03:35:13;9.70;84.60
13332;DHT22;6735;51.456;12.626;2023-05-07T03:37:39;9.70;84.50
13332;DHT22;6735;51.456;12.626;2023-05-07T03:40:06;9.80;84.30
13332;DHT22;6735;51.456;12.626;2023-05-07T03:42:32;9.70;84.40
13332;DHT22;6735;51.456;12.626;2023-05-07T03:44:58;9.70;84.20
13332;DHT22;6735;51.456;12.626;2023-05-07T03:47:23;9.80;84.30
13332;DHT22;6735;51.456;12.626;2023-05-07T03:49:49;9.90;84.10
13332;DHT22;6735;51.456;12.626;2023-05-07T03:52:15;9.90;83.90
13332;DHT22;6735;51.456;12.626;2023-05-07T03:54:41;9.90;83.90
13332;DHT22;6735;51.456;12.626;2023-05-07T03:57:06;9.80;83.80
13332;DHT22;6735;51.456;12.626;2023-05-07T03:59:32;9.90;83.90
13332;DHT22;6735;51.456;12.626;2023-05-07T04:01:58;9.90;83.80
13332;DHT22;6735;51.456;12.626;2023-05-07T04:04:23;9.80;83.70
13332;DHT22;6735;51.456;12.626;2023-05-07T04:06:49;9.80;83.90
13332;DHT22;6735;51.456;12.626;2023-05-07T04:09:14;9.80;84.00
13332;DHT22;6735;51.456;12.626;2023-05-07T04:11:40;9.80;83.80
13332;DHT22;6735;51.456;12.626;2023-05-07T04:14:05;9.90;83.80
13332;DHT22;6735;51.456;12.626;2023-05-07T04:16:31;9.90;83.80
13332;DHT22;6735;51.456;12.626;2023-05-07T04:18:56;9.80;83.90
13332;DHT22;6735;51.456;12.626;2023-05-07T04:21:22;9.80;84.00
13332;DHT22;6735;51.456;12.626;2023-05-07T04:23:48;9.90;84.00
13332;DHT22;6735;51.456;12.626;2023-05-07T04:26:14;9.90;84.00
13332;DHT22;6735;51.456;12.626;2023-05-07T04:28:40;10.00;83.80
13332;DHT22;6735;51.456;12.626;2023-05-07T04:31:06;9.90;83.60
13332;DHT22;6735;51.456;12.626;2023-05-07T04:33:32;9.80;83.60
13332;DHT22;6735;51.456;12.626;2023-05-07T04:35:58;9.90;83.90
13332;DHT22;6735;51.456;12.626;2023-05-07T04:38:30;9.90;83.90
13332;DHT22;6735;51.456;12.626;2023-05-07T04:40:58;9.90;84.00
13332;DHT22;6735;51.456;12.626;2023-05-07T04:43:23;9.90;83.80
13332;DHT22;6735;51.456;12.626;2023-05-07T04:45:52;10.00;83.60
13332;DHT22;6735;51.456;12.626;2023-05-07T04:48:17;9.90;83.60
13332;DHT22;6735;51.456;12.626;2023-05-07T04:50:47;9.90;83.70
13332;DHT22;6735;51.456;12.626;2023-05-07T04:53:13;10.00;83.60
13332;DHT22;6735;51.456;12.626;2023-05-07T04:55:38;9.90;83.50
13332;DHT22;6735;51.456;12.626;2023-05-07T04:58:03;10.00;83.50
13332;DHT22;6735;51.456;12.626;2023-05-07T05:00:30;9.90;83.30
13332;DHT22;6735;51.456;12.626;2023-05-07T05:02:55;9.90;83.30
13332;DHT22;6735;51.456;12.626;2023-05-07T05:05:21;9.90;83.30
13332;DHT22;6735;51.456;12.626;2023-05-07T05:07:46;9.90;83.20
13332;DHT22;6735;51.456;12.626;2023-05-07T05:10:12;9.90;83.00
13332;DHT22;6735;51.456;12.626;2023-05-07T05:12:37;9.90;83.00
13332;DHT22;6735;51.456;12.626;2023-05-07T05:15:04;9.90;82.90
13332;DHT22;6735;51.456;12.626;2023-05-07T05:17:29;9.90;82.60
13332;DHT22;6735;51.456;12.626;2023-05-07T05:19:55;9.90;82.80
13332;DHT22;6735;51.456;12.626;2023-05-07T05:22:20;10.00;82.50
13332;DHT22;6735;51.456;12.626;2023-05-07T05:24:46;10.10;82.20
13332;DHT22;6735;51.456;12.626;2023-05-07T05:27:11;10.10;82.10
13332;DHT22;6735;51.456;12.626;2023-05-07T05:29:37;10.10;82.10
13332;DHT22;6735;51.456;12.626;2023-05-07T05:32:02;10.00;81.70
13332;DHT22;6735;51.456;12.626;2023-05-07T05:34:28;10.10;81.70
13332;DHT22;6735;51.456;12.626;2023-05-07T05:36:53;10.10;81.70
13332;DHT22;6735;51.456;12.626;2023-05-07T05:39:18;10.20;81.80
13332;DHT22;6735;51.456;12.626;2023-05-07T05:41:44;10.20;81.30
13332;DHT22;6735;51.456;12.626;2023-05-07T05:44:09;10.20;81.50
13332;DHT22;6735;51.456;12.626;2023-05-07T05:46:35;10.20;81.50
13332;DHT22;6735;51.456;12.626;2023-05-07T05:49:01;10.30;81.40
13332;DHT22;6735;51.456;12.626;2023-05-07T05:51:26;10.40;81.20
13332;DHT22;6735;51.456;12.626;2023-05-07T05:53:51;10.30;80.60
13332;DHT22;6735;51.456;12.626;2023-05-07T05:56:17;10.40;80.80
13332;DHT22;6735;51.456;12.626;2023-05-07T05:58:43;10.40;80.70
13332;DHT22;6735;51.456;12.626;2023-05-07T06:01:08;10.30;80.10
13332;DHT22;6735;51.456;12.626;2023-05-07T06:03:34;10.30;80.20
13332;DHT22;6735;51.456;12.626;2023-05-07T06:05:59;10.20;79.50
13332;DHT22;6735;51.456;12.626;2023-05-07T06:08:28;10.30;79.70
13332;DHT22;6735;51.456;12.626;2023-05-07T06:10:54;10.40;79.10
13332;DHT22;6735;51.456;12.626;2023-05-07T06:13:20;10.50;78.00
13332;DHT22;6735;51.456;12.626;2023-05-07T06:15:45;10.60;77.90
13332;DHT22;6735;51.456;12.626;2023-05-07T06:18:10;10.90;77.60
13332;DHT22;6735;51.456;12.626;2023-05-07T06:20:36;11.10;76.90
13332;DHT22;6735;51.456;12.626;2023-05-07T06:23:02;11.10;75.80
13332;DHT22;6735;51.456;12.626;2023-05-07T06:25:27;11.20;75.90
13332;DHT22;6735;51.456;12.626;2023-05-07T06:27:52;11.40;76.20
13332;DHT22;6735;51.456;12.626;2023-05-07T06:30:18;11.50;75.50
13332;DHT22;6735;51.456;12.626;2023-05-07T06:32:44;11.30;74.70
13332;DHT22;6735;51.456;12.626;2023-05-07T06:35:09;11.40;75.40
13332;DHT22;6735;51.456;12.626;2023-05-07T06:37:35;11.40;75.30
13332;DHT22;6735;51.456;12.626;2023-05-07T06:40:00;11.20;75.90
13332;DHT22;6735;51.456;12.626;2023-05-07T06:42:26;11.50;75.40
13332;DHT22;6735;51.456;12.626;2023-05-07T06:44:51;11.70;74.50
13332;DHT22;6735;51.456;12.626;2023-05-07T06:47:17;11.90;74.00
13332;DHT22;6735;51.456;12.626;2023-05-07T06:49:42;12.00;74.00
13332;DHT22;6735;51.456;12.626;2023-05-07T06:52:08;12.00;72.80
13332;DHT22;6735;51.456;12.626;2023-05-07T06:54:33;12.20;72.80
13332;DHT22;6735;51.456;12.626;2023-05-07T06:56:59;12.70;71.60
13332;DHT22;6735;51.456;12.626;2023-05-07T06:59:24;12.90;70.70
13332;DHT22;6735;51.456;12.626;2023-05-07T07:01:50;13.20;70.90
13332;DHT22;6735;51.456;12.626;2023-05-07T07:04:15;12.90;70.30
13332;DHT22;6735;51.456;12.626;2023-05-07T07:06:41;12.90;70.90
13332;DHT22;6735;51.456;12.626;2023-05-07T07:09:06;12.80;70.20
13332;DHT22;6735;51.456;12.626;2023-05-07T07:11:32;12.70;70.40
13332;DHT22;6735;51.456;12.626;2023-05-07T07:13:57;12.50;71.80
13332;DHT22;6735;51.456;12.626;2023-05-07T07:16:24;12.30;70.70
13332;DHT22;6735;51.456;12.626;2023-05-07T07:18:49;12.10;72.10
13332;DHT22;6735;51.456;12.626;2023-05-07T07:21:15;11.80;72.90
13332;DHT22;6735;51.456;12.626;2023-05-07T07:23:40;11.80;73.10
13332;DHT22;6735;51.456;12.626;2023-05-07T07:26:06;11.90;73.40
13332;DHT22;6735;51.456;12.626;2023-05-07T07:28:32;11.90;73.00
13332;DHT22;6735;51.456;12.626;2023-05-07T07:30:57;12.00;73.00
13332;DHT22;6735;51.456;12.626;2023-05-07T07:33:22;11.90;72.70
13332;DHT22;6735;51.456;12.626;2023-05-07T07:35:48;11.80;73.30
13332;DHT22;6735;51.456;12.626;2023-05-07T07:38:13;11.90;73.30
13332;DHT22;6735;51.456;12.626;2023-05-07T07:40:39;11.60;73.00
13332;DHT22;6735;51.456;12.626;2023-05-07T07:43:05;11.50;73.40
13332;DHT22;6735;51.456;12.626;2023-05-07T07:45:31;11.60;73.40
13332;DHT22;6735;51.456;12.626;2023-05-07T07:47:56;11.60;73.20
13332;DHT22;6735;51.456;12.626;2023-05-07T07:50:22;11.60;73.40
13332;DHT22;6735;51.456;12.626;2023-05-07T07:52:48;11.60;73.10
13332;DHT22;6735;51.456;12.626;2023-05-07T07:55:14;11.40;73.20
13332;DHT22;6735;51.456;12.626;2023-05-07T07:57:43;11.50;73.30
13332;DHT22;6735;51.456;12.626;2023-05-07T08:00:09;11.50;73.50
13332;DHT22;6735;51.456;12.626;2023-05-07T08:02:34;11.50;73.30
13332;DHT22;6735;51.456;12.626;2023-05-07T08:05:00;11.60;73.20
13332;DHT22;6735;51.456;12.626;2023-05-07T08:07:25;11.50;73.20
13332;DHT22;6735;51.456;12.626;2023-05-07T08:09:51;11.60;73.40
13332;DHT22;6735;51.456;12.626;2023-05-07T08:12:16;11.60;73.30
13332;DHT22;6735;51.456;12.626;2023-05-07T08:14:42;11.50;73.50
13332;DHT22;6735;51.456;12.626;2023-05-07T08:17:07;11.60;73.60
13332;DHT22;6735;51.456;12.626;2023-05-07T08:19:35;11.60;73.40
13332;DHT22;6735;51.456;12.626;2023-05-07T08:22:00;11.60;73.40
13332;DHT22;6735;51.456;12.626;2023-05-07T08:24:26;11.70;73.50
13332;DHT22;6735;51.456;12.626;2023-05-07T08:26:51;11.80;73.00
13332;DHT22;6735;51.456;12.626;2023-05-07T08:29:17;11.80;73.30
13332;DHT22;6735;51.456;12.626;2023-05-07T08:31:42;12.10;73.30
13332;DHT22;6735;51.456;12.626;2023-05-07T08:34:08;12.00;71.80
13332;DHT22;6735;51.456;12.626;2023-05-07T08:36:33;11.90;72.30
13332;DHT22;6735;51.456;12.626;2023-05-07T08:38:59;11.70;72.00
13332;DHT22;6735;51.456;12.626;2023-05-07T08:41:25;11.80;72.30
13332;DHT22;6735;51.456;12.626;2023-05-07T08:43:51;11.70;72.30
13332;DHT22;6735;51.456;12.626;2023-05-07T08:46:18;11.80;72.60
13332;DHT22;6735;51.456;12.626;2023-05-07T08:48:45;11.80;72.40
13332;DHT22;6735;51.456;12.626;2023-05-07T08:51:15;11.80;72.50
13332;DHT22;6735;51.456;12.626;2023-05-07T08:53:41;12.00;72.20
13332;DHT22;6735;51.456;12.626;2023-05-07T08:56:08;11.90;72.10
13332;DHT22;6735;51.456;12.626;2023-05-07T08:58:34;12.00;72.20
13332;DHT22;6735;51.456;12.626;2023-05-07T09:01:03;11.90;72.40
13332;DHT22;6735;51.456;12.626;2023-05-07T09:03:32;12.00;72.30
13332;DHT22;6735;51.456;12.626;2023-05-07T09:05:57;11.90;72.20
13332;DHT22;6735;51.456;12.626;2023-05-07T09:08:26;11.90;72.60
13332;DHT22;6735;51.456;12.626;2023-05-07T09:10:52;11.80;72.40
13332;DHT22;6735;51.456;12.626;2023-05-07T09:13:17;11.70;72.40
13332;DHT22;6735;51.456;12.626;2023-05-07T09:15:43;11.70;73.10
13332;DHT22;6735;51.456;12.626;2023-05-07T09:18:09;11.80;72.80
13332;DHT22;6735;51.456;12.626;2023-05-07T09:20:36;11.80;72.30
13332;DHT22;6735;51.456;12.626;2023-05-07T09:23:02;11.80;72.40
13332;DHT22;6735;51.456;12.626;2023-05-07T09:25:33;12.00;72.30
13332;DHT22;6735;51.456;12.626;2023-05-07T09:27:59;12.00;71.80
13332;DHT22;6735;51.456;12.626;2023-05-07T09:30:32;11.90;72.40
13332;DHT22;6735;51.456;12.626;2023-05-07T09:32:58;11.80;72.30
13332;DHT22;6735;51.456;12.626;2023-05-07T09:35:25;12.00;72.40
13332;DHT22;6735;51.456;12.626;2023-05-07T09:37:53;12.10;72.10
13332;DHT22;6735;51.456;12.626;2023-05-07T09:40:23;12.10;71.70
13332;DHT22;6735;51.456;12.626;2023-05-07T09:42:49;12.10;71.50
13332;DHT22;6735;51.456;12.626;2023-05-07T09:45:15;12.10;70.90
13332;DHT22;6735;51.456;12.626;2023-05-07T09:47:44;12.20;70.40
13332;DHT22;6735;51.456;12.626;2023-05-07T09:50:10;12.10;70.70
13332;DHT22;6735;51.456;12.626;2023-05-07T09:52:39;12.10;70.90
13332;DHT22;6735;51.456;12.626;2023-05-07T09:55:06;12.10;70.70
13332;DHT22;6735;51.456;12.626;2023-05-07T09:57:32;12.20;70.20
13332;DHT22;6735;51.456;12.626;2023-05-07T09:59:59;12.20;70.20
13332;DHT22;6735;51.456;12.626;2023-05-07T10:02:30;12.20;70.00
13332;DHT22;6735;51.456;12.626;2023-05-07T10:04:57;12.30;69.80
13332;DHT22;6735;51.456;12.626;2023-05-07T10:07:25;12.30;69.30
13332;DHT22;6735;51.456;12.626;2023-05-07T10:09:51;12.20;69.60
13332;DHT22;6735;51.456;12.626;2023-05-07T10:12:17;12.10;70.20
13332;DHT22;6735;51.456;12.626;2023-05-07T10:14:44;12.20;69.70
13332;DHT22;6735;51.456;12.626;2023-05-07T10:17:11;12.20;70.00
13332;DHT22;6735;51.456;12.626;2023-05-07T10:19:38;12.10;70.30
13332;DHT22;6735;51.456;12.626;2023-05-07T10:22:05;12.20;69.90
13332;DHT22;6735;51.456;12.626;2023-05-07T10:24:36;12.30;69.80
13332;DHT22;6735;51.456;12.626;2023-05-07T10:27:11;12.30;69.90
13332;DHT22;6735;51.456;12.626;2023-05-07T10:32:39;12.40;69.70
13332;DHT22;6735;51.456;12.626;2023-05-07T10:35:14;12.30;69.50
13332;DHT22;6735;51.456;12.626;2023-05-07T10:37:41;12.10;70.10
13332;DHT22;6735;51.456;12.626;2023-05-07T10:40:08;12.20;70.80
13332;DHT22;6735;51.456;12.626;2023-05-07T10:42:33;12.30;70.40
13332;DHT22;6735;51.456;12.626;2023-05-07T10:45:12;12.20;70.50
13332;DHT22;6735;51.456;12.626;2023-05-07T10:50:29;12.30;69.40
13332;DHT22;6735;51.456;12.626;2023-05-07T10:55:49;12.50;70.10
13332;DHT22;6735;51.456;12.626;2023-05-07T11:00:50;12.50;69.60
13332;DHT22;6735;51.456;12.626;2023-05-07T11:03:16;12.60;69.00
13332;DHT22;6735;51.456;12.626;2023-05-07T11:05:42;12.60;68.10
13332;DHT22;6735;51.456;12.626;2023-05-07T11:08:08;12.60;68.80
13332;DHT22;6735;51.456;12.626;2023-05-07T11:10:54;12.70;68.60
13332;DHT22;6735;51.456;12.626;2023-05-07T11:13:42;12.80;68.10
13332;DHT22;6735;51.456;12.626;2023-05-07T11:16:22;12.80;68.00
13332;DHT22;6735;51.456;12.626;2023-05-07T11:18:55;12.70;68.60
13332;DHT22;6735;51.456;12.626;2023-05-07T11:21:37;12.80;68.10
13332;DHT22;6735;51.456;12.626;2023-05-07T11:24:03;12.70;68.60
13332;DHT22;6735;51.456;12.626;2023-05-07T11:26:32;12.70;68.90
13332;DHT22;6735;51.456;12.626;2023-05-07T11:29:10;12.80;68.30
13332;DHT22;6735;51.456;12.626;2023-05-07T11:31:37;12.80;68.10
13332;DHT22;6735;51.456;12.626;2023-05-07T11:34:02;12.80;67.00
13332;DHT22;6735;51.456;12.626;2023-05-07T11:36:31;13.00;66.70
13332;DHT22;6735;51.456;12.626;2023-05-07T11:38:57;13.20;66.60
13332;DHT22;6735;51.456;12.626;2023-05-07T11:41:22;13.20;65.50
13332;DHT22;6735;51.456;12.626;2023-05-07T11:43:59;13.20;65.90
13332;DHT22;6735;51.456;12.626;2023-05-07T11:46:25;13.10;65.40
13332;DHT22;6735;51.456;12.626;2023-05-07T11:48:50;13.10;66.50
13332;DHT22;6735;51.456;12.626;2023-05-07T11:51:20;12.90;66.30
13332;DHT22;6735;51.456;12.626;2023-05-07T11:53:46;13.00;66.50
13332;DHT22;6735;51.456;12.626;2023-05-07T11:56:13;13.30;66.30
13332;DHT22;6735;51.456;12.626;2023-05-07T11:58:40;13.60;65.70
13332;DHT22;6735;51.456;12.626;2023-05-07T12:01:08;13.70;65.10
13332;DHT22;6735;51.456;12.626;2023-05-07T12:03:39;13.90;64.50
13332;DHT22;6735;51.456;12.626;2023-05-07T12:06:08;13.90;64.70
13332;DHT22;6735;51.456;12.626;2023-05-07T12:08:37;13.90;64.40
13332;DHT22;6735;51.456;12.626;2023-05-07T12:11:03;14.10;64.10
13332;DHT22;6735;51.456;12.626;2023-05-07T12:13:31;14.00;63.00
13332;DHT22;6735;51.456;12.626;2023-05-07T12:15:57;13.90;62.70
13332;DHT22;6735;51.456;12.626;2023-05-07T12:18:23;13.80;63.70
13332;DHT22;6735;51.456;12.626;2023-05-07T12:20:50;14.00;64.10
13332;DHT22;6735;51.456;12.626;2023-05-07T12:23:16;14.40;63.10
13332;DHT22;6735;51.456;12.626;2023-05-07T12:25:42;14.40;62.80
13332;DHT22;6735;51.456;12.626;2023-05-07T12:28:16;14.60;62.30
13332;DHT22;6735;51.456;12.626;2023-05-07T12:30:46;14.50;61.70
13332;DHT22;6735;51.456;12.626;2023-05-07T12:33:19;14.40;62.40
13332;DHT22;6735;51.456;12.626;2023-05-07T12:35:47;14.40;62.30
13332;DHT22;6735;51.456;12.626;2023-05-07T12:38:15;14.40;62.20
13332;DHT22;6735;51.456;12.626;2023-05-07T12:40:46;14.50;62.20
13332;DHT22;6735;51.456;12.626;2023-05-07T12:43:19;14.50;61.90
13332;DHT22;6735;51.456;12.626;2023-05-07T12:45:47;14.60;61.10
13332;DHT22;6735;51.456;12.626;2023-05-07T12:48:13;14.60;62.40
13332;DHT22;6735;51.456;12.626;2023-05-07T12:50:39;14.60;62.00
13332;DHT22;6735;51.456;12.626;2023-05-07T12:53:06;14.70;62.00
13332;DHT22;6735;51.456;12.626;2023-05-07T12:55:32;14.70;61.20
13332;DHT22;6735;51.456;12.626;2023-05-07T12:58:00;14.60;62.00
13332;DHT22;6735;51.456;12.626;2023-05-07T13:00:36;14.90;61.50
13332;DHT22;6735;51.456;12.626;2023-05-07T13:03:02;14.90;61.00
13332;DHT22;6735;51.456;12.626;2023-05-07T13:05:28;14.90;60.90
13332;DHT22;6735;51.456;12.626;2023-05-07T13:07:56;14.70;61.00
13332;DHT22;6735;51.456;12.626;2023-05-07T13:10:26;14.70;60.90
13332;DHT22;6735;51.456;12.626;2023-05-07T13:12:52;14.70;61.40
13332;DHT22;6735;51.456;12.626;2023-05-07T13:15:18;14.60;61.20
13332;DHT22;6735;51.456;12.626;2023-05-07T13:17:43;14.80;62.00
13332;DHT22;6735;51.456;12.626;2023-05-07T13:20:10;15.00;61.10
13332;DHT22;6735;51.456;12.626;2023-05-07T13:22:36;15.10;61.30
13332;DHT22;6735;51.456;12.626;2023-05-07T13:25:02;15.10;60.50
13332;DHT22;6735;51.456;12.626;2023-05-07T13:27:27;14.90;61.40
13332;DHT22;6735;51.456;12.626;2023-05-07T13:29:56;15.00;61.00
13332;DHT22;6735;51.456;12.626;2023-05-07T13:32:21;15.10;61.10
13332;DHT22;6735;51.456;12.626;2023-05-07T13:34:47;15.10;61.00
13332;DHT22;6735;51.456;12.626;2023-05-07T13:37:12;15.20;60.40
13332;DHT22;6735;51.456;12.626;2023-05-07T13:39:37;15.40;60.40
13332;DHT22;6735;51.456;12.626;2023-05-07T13:42:03;15.60;60.10
13332;DHT22;6735;51.456;12.626;2023-05-07T13:44:28;15.60;58.20
13332;DHT22;6735;51.456;12.626;2023-05-07T13:46:54;15.30;59.60
13332;DHT22;6735;51.456;12.626;2023-05-07T13:49:19;15.20;58.60
13332;DHT22;6735;51.456;12.626;2023-05-07T13:51:45;14.90;59.10
13332;DHT22;6735;51.456;12.626;2023-05-07T13:54:10;14.80;59.80
13332;DHT22;6735;51.456;12.626;2023-05-07T13:56:36;15.10;59.60
13332;DHT22;6735;51.456;12.626;2023-05-07T13:59:01;15.10;59.50
13332;DHT22;6735;51.456;12.626;2023-05-07T14:01:27;15.20;59.30
13332;DHT22;6735;51.456;12.626;2023-05-07T14:03:53;15.20;58.90
13332;DHT22;6735;51.456;12.626;2023-05-07T14:06:18;15.30;59.20
13332;DHT22;6735;51.456;12.626;2023-05-07T14:08:44;15.40;59.10
13332;DHT22;6735;51.456;12.626;2023-05-07T14:11:09;15.40;59.00
13332;DHT22;6735;51.456;12.626;2023-05-07T14:13:35;15.30;58.70
13332;DHT22;6735;51.456;12.626;2023-05-07T14:16:00;15.50;58.70
13332;DHT22;6735;51.456;12.626;2023-05-07T14:18:26;15.70;57.90
13332;DHT22;6735;51.456;12.626;2023-05-07T14:20:54;15.40;57.70
13332;DHT22;6735;51.456;12.626;2023-05-07T14:23:19;15.40;57.90
13332;DHT22;6735;51.456;12.626;2023-05-07T14:25:47;15.50;57.30
13332;DHT22;6735;51.456;12.626;2023-05-07T14:28:13;15.50;56.50
13332;DHT22;6735;51.456;12.626;2023-05-07T14:30:38;15.30;58.00
13332;DHT22;6735;51.456;12.626;2023-05-07T14:33:04;15.40;57.70
13332;DHT22;6735;51.456;12.626;2023-05-07T14:35:30;15.60;56.90
13332;DHT22;6735;51.456;12.626;2023-05-07T14:37:55;15.60;57.10
13332;DHT22;6735;51.456;12.626;2023-05-07T14:40:21;15.60;57.60
13332;DHT22;6735;51.456;12.626;2023-05-07T14:42:46;15.40;57.40
13332;DHT22;6735;51.456;12.626;2023-05-07T14:45:12;15.40;56.70
13332;DHT22;6735;51.456;12.626;2023-05-07T14:47:38;15.40;57.20
13332;DHT22;6735;51.456;12.626;2023-05-07T14:50:03;15.30;57.20
13332;DHT22;6735;51.456;12.626;2023-05-07T14:52:29;15.50;56.70
13332;DHT22;6735;51.456;12.626;2023-05-07T14:54:54;15.20;57.70
13332;DHT22;6735;51.456;12.626;2023-05-07T14:57:20;15.40;58.20
13332;DHT22;6735;51.456;12.626;2023-05-07T14:59:46;15.40;58.30
13332;DHT22;6735;51.456;12.626;2023-05-07T15:02:12;15.40;58.50
13332;DHT22;6735;51.456;12.626;2023-05-07T15:04:38;15.40;58.80
13332;DHT22;6735;51.456;12.626;2023-05-07T15:07:05;15.50;58.50
13332;DHT22;6735;51.456;12.626;2023-05-07T15:09:31;15.30;58.80
13332;DHT22;6735;51.456;12.626;2023-05-07T15:11:56;15.50;58.70
13332;DHT22;6735;51.456;12.626;2023-05-07T15:14:22;15.50;58.50
13332;DHT22;6735;51.456;12.626;2023-05-07T15:16:50;15.60;58.60
13332;DHT22;6735;51.456;12.626;2023-05-07T15:19:16;15.30;58.80
13332;DHT22;6735;51.456;12.626;2023-05-07T15:21:42;15.10;58.90
13332;DHT22;6735;51.456;12.626;2023-05-07T15:24:07;15.00;59.40
13332;DHT22;6735;51.456;12.626;2023-05-07T15:26:33;14.90;59.50
13332;DHT22;6735;51.456;12.626;2023-05-07T15:28:58;15.10;59.70
13332;DHT22;6735;51.456;12.626;2023-05-07T15:31:24;15.00;59.70
13332;DHT22;6735;51.456;12.626;2023-05-07T15:33:50;14.90;59.70
13332;DHT22;6735;51.456;12.626;2023-05-07T15:36:17;14.90;60.00
13332;DHT22;6735;51.456;12.626;2023-05-07T15:38:43;14.70;60.70
13332;DHT22;6735;51.456;12.626;2023-05-07T15:41:08;14.70;60.90